District Heights, Maryland
Current Conditions -  °F | °C
As of 3:55 AM on Monday 22 Dec 2014 (Local Time) from KADW Reporting Station
Overcast Overcast  
Wind Chill: 23°   Ceiling: 4500
Heat Index: 29°   Visibility: 10mi
Dew Point: 25°   Wind: 6mph
Humidity: 83%   Direction: 60°ENE
Pressure: 30.29"   Gusts: NA
Location:  38.86°N, 76.88°W
Report Text: KADW 220855Z 06005KT 10SM OVC045 M02/M04 A3029 RMK AO2A SLP262 T10151040 56010
Loading
Personal Weather Stations






























Interactive Weather Map New forecast layout! Learn more

10-Day Weather Forecast

Advertisements
Track Severe Weather on mobile